Time;durP1;ratioP1;P1;durP2;ratioP2;P2;SDS_P1;SDS_P2;PMS_P1;PMS_P2;Temp;Humidity;BMP_temperature;BMP_pressure;BME280_temperature;BME280_humidity;BME280_pressure;Samples;Min_cycle;Max_cycle;Signal;HPM_P1;HPM_P2
2023/04/25 00:00:29;;;;;;;4.65;3.00;;;;;;;12.80;69.85;93892.28;4227773;28;20429;-62
2023/04/25 00:02:32;;;;;;;6.50;3.22;;;;;;;12.80;70.04;93882.63;4223438;28;20052;-61
2023/04/25 00:04:34;;;;;;;3.55;2.70;;;;;;;12.84;71.13;93886.50;4222233;28;20409;-61
2023/04/25 00:06:37;;;;;;;5.95;3.60;;;;;;;12.86;71.81;93868.72;4228155;28;20051;-61
2023/04/25 00:08:38;;;;;;;4.85;2.95;;;;;;;12.86;72.83;93862.63;4226585;28;20048;-62
2023/04/25 00:10:40;;;;;;;5.90;3.40;;;;;;;12.86;72.87;93857.38;4217534;28;20568;-62
2023/04/25 00:12:42;;;;;;;5.63;3.28;;;;;;;12.89;72.94;93846.47;4218555;28;20043;-60
2023/04/25 00:14:45;;;;;;;4.05;3.28;;;;;;;12.91;73.01;93839.22;4224559;28;20043;-63
2023/04/25 00:16:48;;;;;;;4.10;3.30;;;;;;;12.90;73.27;93837.56;4222024;27;20044;-61
2023/04/25 00:18:53;;;;;;;4.97;3.67;;;;;;;12.90;72.87;93837.56;4220678;28;20105;-61
2023/04/25 00:20:55;;;;;;;8.95;3.60;;;;;;;12.84;72.96;93838.34;4213537;28;20055;-61
2023/04/25 00:22:57;;;;;;;4.32;3.72;;;;;;;12.82;72.55;93835.09;4213185;28;20085;-61
2023/04/25 00:25:00;;;;;;;3.72;3.13;;;;;;;12.71;71.38;93833.81;4217310;28;20048;-61
2023/04/25 00:27:01;;;;;;;3.90;3.20;;;;;;;12.43;71.28;93839.94;4209243;28;20048;-62
2023/04/25 00:29:03;;;;;;;4.38;3.13;;;;;;;12.37;72.24;93832.81;4223183;28;20044;-61
2023/04/25 00:31:05;;;;;;;5.20;3.20;;;;;;;12.35;72.02;93832.19;4228433;28;20044;-62
2023/04/25 00:33:07;;;;;;;3.65;2.80;;;;;;;12.31;71.80;93838.81;4229240;28;20052;-62
2023/04/25 00:35:09;;;;;;;3.42;3.00;;;;;;;12.14;72.41;93837.47;4228392;28;20562;-60
2023/04/25 00:37:11;;;;;;;4.82;3.47;;;;;;;12.21;73.64;93833.09;4217695;28;20051;-61
2023/04/25 00:39:13;;;;;;;5.43;3.72;;;;;;;12.28;74.05;93833.94;4218205;28;20579;-61
2023/04/25 00:41:15;;;;;;;6.18;3.55;;;;;;;12.09;73.84;93840.69;4214778;28;20051;-62
2023/04/25 00:43:16;;;;;;;3.80;3.35;;;;;;;11.69;74.67;93846.31;4216502;28;20648;-62
2023/04/25 00:45:18;;;;;;;4.43;3.40;;;;;;;11.52;75.55;93850.19;4215579;28;20048;-61
2023/04/25 00:47:20;;;;;;;4.88;3.78;;;;;;;11.41;76.65;93859.34;4224104;28;20082;-62
2023/04/25 00:49:22;;;;;;;5.32;3.70;;;;;;;11.40;76.41;93855.09;4223858;28;20044;-63
2023/04/25 00:51:24;;;;;;;6.13;4.13;;;;;;;11.44;75.97;93856.38;4204660;28;20255;-61
2023/04/25 00:53:27;;;;;;;4.60;3.40;;;;;;;11.43;75.86;93852.09;4225077;28;20075;-61
2023/04/25 00:55:31;;;;;;;5.35;4.13;;;;;;;11.31;76.54;93837.03;4225219;28;20047;-62
2023/04/25 00:57:33;;;;;;;5.28;3.92;;;;;;;11.31;77.01;93842.28;4209716;28;20098;-59
2023/04/25 00:59:36;;;;;;;5.55;3.97;;;;;;;11.15;78.24;93836.25;4226780;28;20094;-62
2023/04/25 01:01:38;;;;;;;4.83;4.30;;;;;;;10.99;79.36;93832.03;4227520;28;20055;-62
2023/04/25 01:03:40;;;;;;;5.03;4.53;;;;;;;10.90;80.58;93824.44;4226677;27;20287;-61
2023/04/25 01:05:43;;;;;;;5.95;4.90;;;;;;;10.88;81.05;93818.56;4213043;28;20538;-60
2023/04/25 01:07:45;;;;;;;6.43;4.95;;;;;;;10.85;81.75;93801.41;4212280;28;20048;-61
2023/04/25 01:09:47;;;;;;;8.13;5.65;;;;;;;10.83;82.28;93804.22;4213163;28;20048;-60
2023/04/25 01:11:49;;;;;;;7.38;5.82;;;;;;;10.89;81.95;93810.53;4211605;28;20100;-60
2023/04/25 01:13:50;;;;;;;7.30;6.30;;;;;;;10.98;81.99;93811.25;4216229;28;20059;-61
2023/04/25 01:15:53;;;;;;;11.27;6.65;;;;;;;11.13;81.46;93812.03;4225122;28;20058;-61
2023/04/25 01:17:55;;;;;;;7.72;5.97;;;;;;;11.37;81.21;93810.06;4226494;27;20051;-59
2023/04/25 01:19:57;;;;;;;9.50;6.57;;;;;;;11.60;80.80;93804.66;4223697;28;20047;-60
2023/04/25 01:21:58;;;;;;;7.65;6.80;;;;;;;11.65;79.18;93804.91;4221022;28;20127;-59
2023/04/25 01:24:00;;;;;;;7.50;6.47;;;;;;;11.46;78.99;93796.69;4223172;28;20050;-61
2023/04/25 01:26:02;;;;;;;7.57;6.28;;;;;;;11.30;79.85;93796.09;4227121;28;20060;-61
2023/04/25 01:28:04;;;;;;;7.00;5.50;;;;;;;11.19;80.23;93807.88;4222584;28;20551;-61
2023/04/25 01:30:06;;;;;;;13.23;6.90;;;;;;;11.20;79.94;93799.81;4224435;28;20055;-60
2023/04/25 01:32:08;;;;;;;8.30;6.28;;;;;;;11.06;80.48;93796.22;4217019;27;20079;-62
2023/04/25 01:34:11;;;;;;;8.20;6.50;;;;;;;11.16;81.17;93802.97;4216022;28;20158;-61
2023/04/25 01:36:13;;;;;;;8.00;6.53;;;;;;;11.28;80.76;93804.94;4213440;28;20048;-60
2023/04/25 01:38:14;;;;;;;9.38;6.75;;;;;;;11.35;79.38;93807.63;4210884;28;20127;-62
2023/04/25 01:40:18;;;;;;;9.88;6.18;;;;;;;11.44;79.34;93806.53;4219512;28;20063;-61
2023/04/25 01:42:20;;;;;;;8.27;6.05;;;;;;;11.54;79.02;93808.84;4226662;28;20051;-61
2023/04/25 01:44:21;;;;;;;8.32;7.18;;;;;;;11.68;78.67;93810.59;4225457;28;20052;-61
2023/04/25 01:46:23;;;;;;;7.63;6.38;;;;;;;11.78;78.15;93802.41;4227234;28;20120;-63
2023/04/25 01:48:25;;;;;;;9.48;6.78;;;;;;;11.85;77.81;93805.09;4227627;28;20043;-62
2023/04/25 01:50:27;;;;;;;8.43;6.88;;;;;;;11.92;77.52;93813.06;4227354;28;20113;-62
2023/04/25 01:52:28;;;;;;;9.60;7.18;;;;;;;12.00;77.01;93815.53;4224099;28;20051;-63
2023/04/25 01:54:30;;;;;;;9.38;6.85;;;;;;;12.06;77.13;93814.78;4222861;28;20409;-62
2023/04/25 01:56:33;;;;;;;11.18;7.53;;;;;;;12.12;76.97;93814.03;4218062;28;20108;-61
2023/04/25 01:58:34;;;;;;;8.82;7.07;;;;;;;12.16;77.10;93810.03;4208133;28;20054;-63
2023/04/25 02:00:40;;;;;;;8.13;6.30;;;;;;;12.19;76.91;93814.88;4205740;28;20131;-62
2023/04/25 02:02:42;;;;;;;9.02;7.15;;;;;;;12.24;76.55;93812.53;4211461;28;20075;-61
2023/04/25 02:04:44;;;;;;;8.80;7.55;;;;;;;12.25;76.61;93808.88;4216199;28;20511;-61
2023/04/25 02:06:46;;;;;;;6.95;6.20;;;;;;;12.23;76.08;93808.25;4215178;28;20049;-61
2023/04/25 02:08:48;;;;;;;6.75;5.85;;;;;;;12.18;76.11;93807.22;4214807;28;20044;-61
2023/04/25 02:10:49;;;;;;;7.63;5.85;;;;;;;12.19;76.19;93809.63;4214445;28;20075;-62
2023/04/25 02:12:51;;;;;;;7.43;6.43;;;;;;;12.24;76.37;93802.00;4214829;28;20052;-61
2023/04/25 02:14:53;;;;;;;9.35;6.22;;;;;;;12.31;75.95;93802.06;4214756;28;20298;-60
2023/04/25 02:16:54;;;;;;;6.97;6.25;;;;;;;12.37;75.51;93800.47;4222996;28;20086;-61
2023/04/25 02:18:56;;;;;;;9.48;5.80;;;;;;;12.40;75.46;93792.22;4224242;28;20140;-60
2023/04/25 02:20:59;;;;;;;8.23;5.90;;;;;;;12.25;74.66;93789.69;4221334;28;20044;-60
2023/04/25 02:23:00;;;;;;;7.97;5.82;;;;;;;12.09;74.91;93783.72;4216063;28;20056;-60
2023/04/25 02:25:04;;;;;;;8.95;5.93;;;;;;;12.09;75.44;93782.91;4222193;28;20150;-59
2023/04/25 02:27:06;;;;;;;6.20;5.28;;;;;;;12.12;75.47;93779.91;4212071;28;20044;-60
2023/04/25 02:29:07;;;;;;;7.45;5.90;;;;;;;12.08;75.27;93778.66;4217501;28;20048;-60
2023/04/25 02:31:09;;;;;;;6.07;5.35;;;;;;;11.95;75.02;93765.44;4222072;28;20040;-60
2023/04/25 02:33:11;;;;;;;5.97;5.38;;;;;;;11.99;75.65;93771.94;4212644;28;20044;-60
2023/04/25 02:35:12;;;;;;;6.47;5.55;;;;;;;12.02;75.39;93768.91;4221773;28;20043;-58
2023/04/25 02:37:14;;;;;;;6.70;5.80;;;;;;;12.05;75.54;93765.94;4226132;28;20116;-60
2023/04/25 02:39:16;;;;;;;6.75;5.82;;;;;;;12.09;75.13;93764.53;4218797;28;20656;-59
2023/04/25 02:41:18;;;;;;;6.93;5.50;;;;;;;12.14;75.07;93762.16;4219641;28;20048;-60
2023/04/25 02:43:20;;;;;;;6.47;5.78;;;;;;;12.15;74.71;93760.31;4225987;28;20131;-60
2023/04/25 02:45:22;;;;;;;14.30;8.90;;;;;;;12.12;74.91;93763.34;4226709;28;20501;-61
2023/04/25 02:47:24;;;;;;;26.48;16.25;;;;;;;12.11;75.23;93759.91;4212933;28;20116;-58
2023/04/25 02:49:25;;;;;;;14.10;10.30;;;;;;;12.08;75.12;93752.41;4211856;28;20382;-58
2023/04/25 02:51:27;;;;;;;20.85;15.10;;;;;;;12.15;75.21;93752.44;4210582;28;20047;-56
2023/04/25 02:53:29;;;;;;;10.07;7.07;;;;;;;12.16;74.65;93754.91;4211799;28;20419;-59
2023/04/25 02:55:30;;;;;;;7.40;5.35;;;;;;;12.16;74.71;93754.09;4213635;28;20516;-61
2023/04/25 02:57:32;;;;;;;6.53;5.60;;;;;;;12.17;74.19;93753.88;4210274;28;20276;-61
2023/04/25 02:59:34;;;;;;;7.10;5.78;;;;;;;12.13;74.18;93751.81;4211670;28;20048;-60
2023/04/25 03:01:35;;;;;;;7.15;5.65;;;;;;;12.08;74.65;93749.78;4211584;28;20051;-60
2023/04/25 03:03:37;;;;;;;6.78;5.63;;;;;;;12.00;74.73;93742.03;4213927;28;20424;-61
2023/04/25 03:05:39;;;;;;;9.27;6.35;;;;;;;11.84;74.97;93740.50;4211482;28;20130;-61
2023/04/25 03:07:40;;;;;;;8.57;6.28;;;;;;;11.79;75.76;93735.81;4211232;28;20652;-61
2023/04/25 03:09:42;;;;;;;7.03;5.65;;;;;;;11.80;75.96;93742.69;4212181;28;20040;-61
2023/04/25 03:11:44;;;;;;;7.78;6.30;;;;;;;11.79;75.89;93735.00;4212257;28;20044;-62
2023/04/25 03:13:46;;;;;;;8.27;6.00;;;;;;;11.81;75.73;93738.25;4210056;28;20125;-61
2023/04/25 03:15:47;;;;;;;8.52;6.28;;;;;;;11.81;75.64;93744.31;4217004;28;20125;-60
2023/04/25 03:17:49;;;;;;;9.82;7.20;;;;;;;11.75;75.60;93749.50;4225224;28;20071;-62
2023/04/25 03:19:51;;;;;;;8.55;6.25;;;;;;;11.74;76.02;93745.25;4225489;28;20054;-59
2023/04/25 03:21:53;;;;;;;6.43;5.68;;;;;;;11.77;76.24;93734.38;4218787;28;20079;-59
2023/04/25 03:23:55;;;;;;;7.68;6.43;;;;;;;11.76;76.04;93738.00;4205217;28;20048;-59
2023/04/25 03:25:56;;;;;;;7.32;6.00;;;;;;;11.77;76.35;93737.81;4222996;28;20558;-57
2023/04/25 03:27:58;;;;;;;7.70;6.47;;;;;;;11.80;76.10;93740.06;4222182;28;20086;-61
2023/04/25 03:29:59;;;;;;;10.15;6.63;;;;;;;11.82;76.19;93724.13;4222563;28;20067;-58
2023/04/25 03:32:01;;;;;;;7.25;6.20;;;;;;;11.78;76.05;93739.44;4225356;28;20056;-59
2023/04/25 03:34:03;;;;;;;6.95;5.72;;;;;;;11.75;75.89;93729.31;4213204;28;20055;-60
2023/04/25 03:36:05;;;;;;;7.63;6.05;;;;;;;11.61;76.26;93736.25;4225451;28;20043;-59
2023/04/25 03:38:07;;;;;;;7.70;6.35;;;;;;;11.27;77.88;93719.44;4211743;28;20047;-59
2023/04/25 03:40:08;;;;;;;7.28;5.75;;;;;;;11.30;78.17;93736.59;4217104;28;20043;-60
2023/04/25 03:42:10;;;;;;;7.80;6.28;;;;;;;11.38;78.17;93738.25;4215420;28;20048;-61
2023/04/25 03:44:12;;;;;;;8.57;6.53;;;;;;;11.41;78.18;93741.34;4212497;28;20048;-59
2023/04/25 03:46:13;;;;;;;7.75;6.50;;;;;;;11.57;78.11;93736.81;4215082;28;20063;-59
2023/04/25 03:48:16;;;;;;;8.23;6.85;;;;;;;11.58;77.43;93728.78;4218711;28;20044;-59
2023/04/25 03:50:17;;;;;;;8.93;6.85;;;;;;;11.54;77.74;93727.53;4210730;28;20651;-58
2023/04/25 03:52:19;;;;;;;8.80;6.20;;;;;;;11.60;77.60;93734.66;4222082;28;20108;-59
2023/04/25 03:54:21;;;;;;;7.50;6.38;;;;;;;11.67;77.42;93721.59;4215371;28;20101;-58
2023/04/25 03:56:22;;;;;;;7.60;5.38;;;;;;;11.76;76.89;93735.38;4221856;28;20056;-61
2023/04/25 03:58:24;;;;;;;7.50;5.97;;;;;;;11.88;76.77;93747.03;4214116;28;20668;-60
2023/04/25 04:00:26;;;;;;;9.02;5.90;;;;;;;12.00;75.89;93739.41;4213512;28;20052;-59
2023/04/25 04:02:27;;;;;;;9.60;6.38;;;;;;;12.27;74.81;93735.16;4210971;28;20072;-67
2023/04/25 04:04:29;;;;;;;6.53;5.32;;;;;;;12.33;74.08;93736.22;4221500;28;20044;-62
2023/04/25 04:06:32;;;;;;;8.32;5.72;;;;;;;11.82;75.38;93745.91;4213126;28;20052;-61
2023/04/25 04:08:35;;;;;;;6.50;5.25;;;;;;;11.63;76.53;93751.81;4226266;28;20062;-61
2023/04/25 04:10:36;;;;;;;7.18;5.47;;;;;;;11.57;76.66;93753.41;4219069;28;20040;-57
2023/04/25 04:12:38;;;;;;;5.88;5.25;;;;;;;11.36;76.87;93740.28;4215859;28;20127;-61
2023/04/25 04:14:40;;;;;;;7.07;5.97;;;;;;;11.20;77.95;93751.81;4225135;28;20048;-60
2023/04/25 04:16:41;;;;;;;7.97;5.90;;;;;;;11.06;79.09;93751.69;4225335;28;20571;-59
2023/04/25 04:18:43;;;;;;;6.43;5.30;;;;;;;11.22;78.75;93760.31;4216663;28;20079;-60
2023/04/25 04:20:45;;;;;;;7.90;6.20;;;;;;;11.36;78.68;93751.59;4226259;28;20055;-62
2023/04/25 04:22:46;;;;;;;8.68;6.13;;;;;;;11.58;78.69;93744.50;4227158;28;20052;-61
2023/04/25 04:24:49;;;;;;;11.45;6.47;;;;;;;11.76;78.08;93738.81;4226640;28;20606;-62
2023/04/25 04:26:51;;;;;;;8.15;5.93;;;;;;;11.93;77.36;93746.44;4224769;28;20058;-62
2023/04/25 04:28:54;;;;;;;7.78;5.57;;;;;;;11.95;76.19;93744.44;4226122;28;20474;-61
2023/04/25 04:30:55;;;;;;;7.07;6.18;;;;;;;12.00;76.11;93744.66;4222762;28;20117;-63
2023/04/25 04:32:57;;;;;;;6.95;5.47;;;;;;;12.07;75.75;93748.16;4219242;28;20043;-61
2023/04/25 04:34:59;;;;;;;7.28;5.60;;;;;;;12.06;75.34;93739.47;4228709;28;20152;-60
2023/04/25 04:37:01;;;;;;;8.15;6.20;;;;;;;12.07;75.25;93742.91;4222246;28;20097;-59
2023/04/25 04:39:05;;;;;;;8.13;5.80;;;;;;;12.01;74.97;93744.50;4216250;28;20063;-61
2023/04/25 04:41:07;;;;;;;7.60;5.70;;;;;;;12.01;75.28;93748.94;4226670;28;20040;-61
2023/04/25 04:43:10;;;;;;;7.00;5.80;;;;;;;11.99;75.09;93743.88;4228375;28;20047;-61
2023/04/25 04:45:12;;;;;;;7.10;5.72;;;;;;;11.84;75.25;93737.88;4221474;28;20055;-61
2023/04/25 04:47:14;;;;;;;8.15;6.28;;;;;;;11.03;77.54;93745.97;4220258;28;20046;-59
2023/04/25 04:49:16;;;;;;;8.25;6.05;;;;;;;10.99;78.80;93755.22;4218710;28;20082;-62
2023/04/25 04:51:17;;;;;;;8.23;6.22;;;;;;;11.16;79.44;93753.97;4213513;28;20465;-58
2023/04/25 04:53:19;;;;;;;8.07;6.57;;;;;;;11.23;78.48;93752.25;4213614;28;20108;-59
2023/04/25 04:55:20;;;;;;;9.43;6.70;;;;;;;11.09;78.34;93758.34;4213538;28;20052;-60
2023/04/25 04:57:22;;;;;;;10.43;7.40;;;;;;;10.95;79.43;93759.19;4218175;28;20058;-63
2023/04/25 04:59:24;;;;;;;8.43;7.45;;;;;;;10.96;79.73;93768.69;4213069;28;20084;-62
2023/04/25 05:01:26;;;;;;;8.80;7.03;;;;;;;10.91;79.50;93761.38;4207290;28;20048;-62
2023/04/25 05:03:28;;;;;;;9.25;7.75;;;;;;;11.07;79.77;93758.53;4221950;28;20047;-62
2023/04/25 05:05:30;;;;;;;9.75;7.63;;;;;;;11.15;79.90;93757.63;4215666;28;20066;-60
2023/04/25 05:07:31;;;;;;;16.67;8.00;;;;;;;11.28;79.48;93762.19;4213702;28;20470;-59
2023/04/25 05:09:33;;;;;;;8.30;7.25;;;;;;;11.40;78.68;93776.44;4220693;28;20509;-61
2023/04/25 05:11:35;;;;;;;9.27;7.45;;;;;;;11.58;78.29;93777.81;4213993;28;20075;-60
2023/04/25 05:13:37;;;;;;;9.77;7.68;;;;;;;11.74;77.77;93779.34;4212658;28;20052;-61
2023/04/25 05:15:38;;;;;;;8.10;7.15;;;;;;;11.86;77.32;93786.53;4218037;28;20087;-60
2023/04/25 05:17:40;;;;;;;9.40;7.13;;;;;;;12.00;76.63;93773.53;4228086;28;20415;-61
2023/04/25 05:19:41;;;;;;;9.70;7.53;;;;;;;12.08;76.44;93776.03;4227767;28;20047;-62
2023/04/25 05:21:43;;;;;;;10.10;8.20;;;;;;;12.18;76.16;93770.47;4224369;28;20476;-63
2023/04/25 05:23:45;;;;;;;10.60;8.48;;;;;;;12.02;76.10;93767.13;4214331;28;20040;-62
2023/04/25 05:25:46;;;;;;;10.27;7.47;;;;;;;11.66;76.86;93782.94;4227350;28;20044;-62
2023/04/25 05:27:48;;;;;;;11.45;8.30;;;;;;;11.33;78.31;93778.16;4226035;28;20051;-61
2023/04/25 05:29:50;;;;;;;13.48;9.10;;;;;;;11.20;79.34;93778.03;4214926;28;20044;-62
2023/04/25 05:31:51;;;;;;;10.48;8.88;;;;;;;11.33;79.45;93780.78;4222461;28;20126;-61
2023/04/25 05:33:53;;;;;;;12.23;9.10;;;;;;;11.46;79.46;93775.69;4218130;28;20491;-62
2023/04/25 05:35:54;;;;;;;18.02;9.93;;;;;;;11.72;79.32;93778.72;4219522;28;20091;-60
2023/04/25 05:37:56;;;;;;;16.00;11.52;;;;;;;11.95;78.18;93768.06;4224972;28;20048;-61
2023/04/25 05:39:58;;;;;;;22.27;13.15;;;;;;;12.09;77.17;93777.66;4228403;28;20044;-60
2023/04/25 05:42:01;;;;;;;15.43;12.77;;;;;;;12.21;76.33;93775.31;4227773;28;20140;-62
2023/04/25 05:44:03;;;;;;;14.90;12.25;;;;;;;12.36;75.62;93776.03;4227339;28;20051;-61
2023/04/25 05:46:04;;;;;;;14.50;11.75;;;;;;;12.48;75.62;93781.56;4226386;28;20130;-61
2023/04/25 05:48:06;;;;;;;16.35;12.10;;;;;;;12.59;75.24;93777.59;4228657;28;20077;-60
2023/04/25 05:50:08;;;;;;;16.17;11.63;;;;;;;12.69;74.55;93778.84;4227056;28;20043;-59
2023/04/25 05:52:10;;;;;;;14.73;11.23;;;;;;;12.69;73.75;93778.03;4224612;27;20493;-60
2023/04/25 05:54:11;;;;;;;15.73;10.82;;;;;;;12.57;73.92;93769.88;4209185;28;20082;-60
2023/04/25 05:56:13;;;;;;;14.65;10.35;;;;;;;12.51;74.38;93775.91;4227335;28;20054;-62
2023/04/25 05:58:15;;;;;;;12.02;9.65;;;;;;;12.41;73.68;93775.44;4225848;28;20060;-61
2023/04/25 06:00:18;;;;;;;15.48;9.23;;;;;;;12.24;74.47;93777.56;4213569;28;20453;-60
2023/04/25 06:02:21;;;;;;;15.10;10.00;;;;;;;12.24;74.67;93780.19;4228209;28;20047;-62
2023/04/25 06:04:23;;;;;;;11.50;9.20;;;;;;;12.38;75.14;93773.22;4227250;28;20130;-63
2023/04/25 06:06:26;;;;;;;12.23;8.90;;;;;;;12.57;74.96;93777.78;4225578;28;20051;-62
2023/04/25 06:08:28;;;;;;;10.82;8.80;;;;;;;12.71;73.96;93778.63;4223511;27;20051;-59
2023/04/25 06:10:29;;;;;;;11.40;9.10;;;;;;;12.77;73.75;93777.06;4226535;28;20784;-68
2023/04/25 06:12:32;;;;;;;13.48;8.93;;;;;;;12.82;73.60;93774.66;4225524;28;20409;-61
2023/04/25 06:14:34;;;;;;;17.13;9.67;;;;;;;12.90;73.33;93774.50;4225585;28;20047;-62
2023/04/25 06:16:36;;;;;;;12.23;9.02;;;;;;;12.97;73.02;93775.34;4218846;28;20276;-60
2023/04/25 06:18:38;;;;;;;14.10;9.52;;;;;;;12.89;72.48;93778.94;4221617;28;20082;-63
2023/04/25 06:20:39;;;;;;;12.05;9.55;;;;;;;12.60;72.46;93785.25;4214555;28;20119;-60
2023/04/25 06:22:41;;;;;;;14.52;9.82;;;;;;;12.43;73.08;93791.81;4218211;27;20096;-61
2023/04/25 06:24:43;;;;;;;12.63;9.30;;;;;;;12.46;73.65;93783.56;4217106;28;20044;-62
2023/04/25 06:26:44;;;;;;;11.75;9.40;;;;;;;12.62;73.45;93780.63;4216921;28;20222;-60
2023/04/25 06:28:46;;;;;;;16.35;9.35;;;;;;;12.79;73.18;93783.75;4208532;28;20124;-62
2023/04/25 06:30:48;;;;;;;15.45;11.43;;;;;;;12.84;72.52;93781.34;4220521;27;20040;-62
2023/04/25 06:32:49;;;;;;;12.73;9.88;;;;;;;12.89;72.33;93780.75;4226819;28;20047;-61
2023/04/25 06:34:51;;;;;;;11.98;8.10;;;;;;;12.84;71.96;93776.09;4226478;28;20055;-61
2023/04/25 06:36:53;;;;;;;13.40;9.32;;;;;;;12.96;71.64;93789.47;4220169;28;20048;-61
2023/04/25 06:38:54;;;;;;;7.97;6.75;;;;;;;12.88;70.83;93784.38;4227162;28;20051;-61
2023/04/25 06:40:56;;;;;;;9.82;7.20;;;;;;;12.89;70.96;93788.66;4225313;28;20055;-61
2023/04/25 06:42:58;;;;;;;10.30;7.18;;;;;;;12.56;72.00;93802.44;4209883;28;20104;-61
2023/04/25 06:45:00;;;;;;;9.75;7.00;;;;;;;12.71;71.92;93799.66;4227186;28;20074;-61
2023/04/25 06:47:01;;;;;;;9.05;6.53;;;;;;;12.61;71.26;93792.16;4226930;28;20096;-61
2023/04/25 06:49:03;;;;;;;8.95;6.35;;;;;;;12.77;71.62;93796.25;4225681;28;20062;-62
2023/04/25 06:51:05;;;;;;;9.95;7.35;;;;;;;12.86;71.00;93796.91;4221002;28;20047;-59
2023/04/25 06:53:08;;;;;;;8.55;6.47;;;;;;;12.96;70.40;93796.56;4210929;28;20048;-60
2023/04/25 06:55:10;;;;;;;10.82;6.65;;;;;;;13.10;70.64;93796.44;4223413;28;20055;-62
2023/04/25 06:57:11;;;;;;;7.18;5.43;;;;;;;13.29;70.08;93794.91;4224292;28;20051;-61
2023/04/25 06:59:13;;;;;;;8.82;6.78;;;;;;;13.44;69.46;93786.03;4227071;28;20057;-62
2023/04/25 07:01:15;;;;;;;7.85;5.88;;;;;;;13.52;69.06;93785.84;4217480;28;20116;-61
2023/04/25 07:03:17;;;;;;;8.05;5.80;;;;;;;13.49;68.71;93784.44;4223100;28;20043;-61
2023/04/25 07:05:19;;;;;;;8.40;5.97;;;;;;;13.44;68.86;93794.75;4224982;28;20060;-63
2023/04/25 07:07:20;;;;;;;9.27;6.35;;;;;;;13.51;69.66;93803.47;4226021;28;20075;-62
2023/04/25 07:09:22;;;;;;;9.75;6.25;;;;;;;13.58;68.47;93798.22;4226817;28;20134;-63
2023/04/25 07:11:24;;;;;;;7.10;5.93;;;;;;;13.60;68.37;93798.03;4227173;28;20532;-62
2023/04/25 07:13:25;;;;;;;11.18;7.00;;;;;;;13.67;69.05;93796.19;4224432;28;20044;-60
2023/04/25 07:15:27;;;;;;;11.20;6.97;;;;;;;13.73;69.37;93800.66;4223746;28;20052;-63
2023/04/25 07:17:29;;;;;;;11.68;8.90;;;;;;;13.79;68.83;93799.88;4219408;28;20044;-63
2023/04/25 07:19:30;;;;;;;11.68;7.70;;;;;;;13.83;68.58;93797.63;4221759;28;20052;-61
2023/04/25 07:21:32;;;;;;;12.35;6.63;;;;;;;13.87;69.12;93797.06;4223469;28;20127;-62
2023/04/25 07:23:34;;;;;;;8.52;6.55;;;;;;;13.96;68.64;93784.50;4210937;28;20052;-62
2023/04/25 07:25:36;;;;;;;8.30;6.32;;;;;;;14.05;67.95;93788.53;4215429;28;20100;-63
2023/04/25 07:27:38;;;;;;;13.02;6.82;;;;;;;13.91;67.66;93782.44;4224189;28;20066;-61
2023/04/25 07:29:40;;;;;;;9.85;6.47;;;;;;;13.61;68.45;93786.47;4214306;28;20099;-62
2023/04/25 07:31:42;;;;;;;11.50;7.25;;;;;;;13.65;68.48;93777.16;4223051;28;20039;-60
2023/04/25 07:33:47;;;;;;;12.90;6.53;;;;;;;13.56;67.60;93771.28;4227031;28;20416;-59
2023/04/25 07:35:49;;;;;;;11.95;6.68;;;;;;;13.60;67.75;93776.97;4226660;28;20139;-63
2023/04/25 07:37:51;;;;;;;11.18;6.85;;;;;;;13.68;68.15;93776.75;4224572;28;20579;-64
2023/04/25 07:39:53;;;;;;;10.77;7.38;;;;;;;13.67;67.41;93775.16;4222445;28;20137;-62
2023/04/25 07:41:54;;;;;;;12.80;7.25;;;;;;;13.77;67.28;93767.69;4218392;28;20043;-62
2023/04/25 07:43:56;;;;;;;12.73;7.15;;;;;;;13.95;67.66;93772.34;4217696;28;20047;-64
2023/04/25 07:45:58;;;;;;;12.07;7.25;;;;;;;14.16;67.06;93773.16;4228735;28;20145;-64
2023/04/25 07:48:00;;;;;;;9.10;6.40;;;;;;;14.34;66.90;93766.22;4230063;28;20078;-63
2023/04/25 07:50:03;;;;;;;9.25;6.50;;;;;;;14.56;66.37;93767.84;4230280;28;20052;-65
2023/04/25 07:52:05;;;;;;;16.35;7.25;;;;;;;14.72;65.81;93768.22;4216539;28;20130;-63
2023/04/25 07:54:08;;;;;;;8.70;6.43;;;;;;;14.88;64.43;93772.22;4213448;28;20048;-63
2023/04/25 07:56:09;;;;;;;10.85;6.55;;;;;;;15.01;64.20;93766.09;4213908;28;20048;-63
2023/04/25 07:58:11;;;;;;;12.98;6.32;;;;;;;15.11;63.91;93769.09;4213382;28;20052;-62
2023/04/25 08:00:14;;;;;;;19.75;10.05;;;;;;;15.22;64.07;93761.53;4213174;28;20402;-62
2023/04/25 08:02:16;;;;;;;17.05;12.15;;;;;;;15.27;63.11;93767.00;4213940;28;20126;-62
2023/04/25 08:04:18;;;;;;;10.38;6.90;;;;;;;15.39;63.00;93765.31;4221369;28;20067;-63
2023/04/25 08:06:20;;;;;;;15.05;7.00;;;;;;;15.47;62.38;93759.00;4217337;28;20569;-61
2023/04/25 08:08:22;;;;;;;17.88;7.28;;;;;;;15.61;62.59;93754.44;4213257;28;20060;-64
2023/04/25 08:10:23;;;;;;;10.57;6.25;;;;;;;15.80;63.03;93760.63;4207041;28;20043;-63
2023/04/25 08:12:25;;;;;;;10.55;6.53;;;;;;;15.85;61.10;93758.97;4228596;28;20075;-63
2023/04/25 08:14:28;;;;;;;11.50;6.57;;;;;;;15.75;61.08;93759.44;4229037;28;20071;-64
2023/04/25 08:16:30;;;;;;;8.35;6.75;;;;;;;15.76;61.68;93749.69;4227941;28;20052;-66
2023/04/25 08:18:32;;;;;;;12.50;6.75;;;;;;;15.84;61.48;93759.19;4227390;28;20048;-64
2023/04/25 08:20:34;;;;;;;10.02;5.53;;;;;;;15.92;60.17;93751.81;4226224;28;20063;-64
2023/04/25 08:22:35;;;;;;;11.77;6.13;;;;;;;16.04;57.83;93753.75;4226150;28;20651;-62
2023/04/25 08:24:37;;;;;;;8.95;5.43;;;;;;;16.25;57.98;93745.44;4226321;28;20047;-61
2023/04/25 08:26:41;;;;;;;8.23;5.80;;;;;;;16.18;58.10;93740.19;4213462;28;20292;-63
2023/04/25 08:28:42;;;;;;;9.48;5.82;;;;;;;16.06;58.59;93744.56;4225439;28;20040;-62
2023/04/25 08:30:44;;;;;;;7.60;5.40;;;;;;;15.86;57.35;93750.03;4223345;28;20056;-63
2023/04/25 08:32:46;;;;;;;13.77;8.30;;;;;;;15.62;58.28;93748.94;4218327;28;20070;-62
2023/04/25 08:34:47;;;;;;;9.68;6.20;;;;;;;15.63;59.35;93747.09;4218297;28;20044;-63
2023/04/25 08:36:50;;;;;;;11.95;6.40;;;;;;;15.71;60.42;93749.50;4222773;28;20055;-63
2023/04/25 08:38:52;;;;;;;5.93;4.75;;;;;;;15.76;59.92;93749.69;4213954;28;20120;-63
2023/04/25 08:40:56;;;;;;;9.60;5.00;;;;;;;15.79;59.94;93756.34;4212474;28;20040;-63
2023/04/25 08:42:58;;;;;;;9.57;6.22;;;;;;;15.84;60.26;93749.41;4221336;28;20047;-62
2023/04/25 08:45:02;;;;;;;14.98;5.82;;;;;;;15.69;60.35;93754.19;4228802;28;20059;-63
2023/04/25 08:47:07;;;;;;;11.15;4.60;;;;;;;15.63;60.60;93760.31;4208371;28;20049;-65
2023/04/25 08:49:09;;;;;;;8.00;4.70;;;;;;;15.25;62.18;93753.19;4213791;28;20098;-64
2023/04/25 08:51:22;;;;;;;7.35;4.60;;;;;;;15.31;62.45;93757.63;4228141;28;20043;-64
2023/04/25 08:53:29;;;;;;;7.35;4.57;;;;;;;14.63;63.80;93740.47;4228850;28;20536;-63
2023/04/25 08:55:31;;;;;;;6.38;4.72;;;;;;;15.01;63.66;93737.06;4227263;28;20050;-64
2023/04/25 08:57:33;;;;;;;8.68;4.40;;;;;;;15.27;62.11;93737.97;4228052;28;20043;-64
2023/04/25 08:59:36;;;;;;;6.07;3.80;;;;;;;15.49;61.33;93725.28;4220937;28;20048;-63
2023/04/25 09:01:40;;;;;;;4.93;3.17;;;;;;;15.56;58.74;93728.66;4224470;28;20044;-63
2023/04/25 09:03:41;;;;;;;7.18;2.90;;;;;;;15.18;59.62;93733.97;4223794;28;20048;-64
2023/04/25 09:05:44;;;;;;;8.85;2.90;;;;;;;15.27;59.32;93724.78;4218387;28;20092;-66
2023/04/25 09:07:45;;;;;;;11.85;3.47;;;;;;;15.39;59.39;93728.38;4227329;27;20089;-63
2023/04/25 09:09:50;;;;;;;5.90;2.58;;;;;;;15.19;58.78;93731.13;4228117;28;20055;-62
2023/04/25 09:11:54;;;;;;;6.45;2.67;;;;;;;15.21;58.11;93736.16;4227451;28;20048;-64
2023/04/25 09:14:12;;;;;;;4.22;2.30;;;;;;;15.35;56.99;93724.53;4227891;28;20112;-65
2023/04/25 09:16:17;;;;;;;7.97;4.57;;;;;;;15.16;58.11;93726.25;4227032;28;20055;-64
2023/04/25 09:18:30;;;;;;;8.18;4.15;;;;;;;15.09;58.71;93725.47;4216445;28;20056;-63
2023/04/25 09:20:31;;;;;;;7.38;4.35;;;;;;;15.23;58.78;93716.50;4214394;28;20514;-63
2023/04/25 09:22:38;;;;;;;6.53;3.33;;;;;;;15.19;59.23;93711.84;4226618;28;20046;-63
2023/04/25 09:24:45;;;;;;;5.97;3.95;;;;;;;15.17;59.89;93727.88;4227649;28;20048;-62
2023/04/25 09:26:47;;;;;;;14.82;4.70;;;;;;;15.29;59.81;93728.00;4223635;28;20074;-63
2023/04/25 09:28:49;;;;;;;7.30;3.88;;;;;;;15.48;59.85;93727.09;4217240;27;20113;-60
2023/04/25 09:30:55;;;;;;;6.95;4.00;;;;;;;15.59;59.24;93724.78;4225644;28;20052;-63